sensor_id;sensor_type;location;lat;lon;timestamp;pressure;altitude;pressure_sealevel;temperature;humidity
39363;BME280;25088;43.238;23.110;2023-03-01T00:01:40;97290.50;;;4.99;100.00
39363;BME280;25088;43.238;23.110;2023-03-01T00:04:06;97294.25;;;5.05;100.00
39363;BME280;25088;43.238;23.110;2023-03-01T00:06:31;97279.44;;;5.01;100.00
39363;BME280;25088;43.238;23.110;2023-03-01T00:08:57;97283.44;;;5.05;100.00
39363;BME280;25088;43.238;23.110;2023-03-01T00:11:28;97279.72;;;5.12;100.00
39363;BME280;25088;43.238;23.110;2023-03-01T00:13:56;97273.06;;;5.15;100.00
39363;BME280;25088;43.238;23.110;2023-03-01T00:16:59;97270.78;;;5.18;100.00
39363;BME280;25088;43.238;23.110;2023-03-01T00:19:19;97267.03;;;5.13;100.00
39363;BME280;25088;43.238;23.110;2023-03-01T00:21:47;97270.75;;;5.12;100.00
39363;BME280;25088;43.238;23.110;2023-03-01T00:24:13;97279.72;;;5.12;100.00
39363;BME280;25088;43.238;23.110;2023-03-01T00:26:38;97256.34;;;4.98;100.00
39363;BME280;25088;43.238;23.110;2023-03-01T00:29:04;97266.97;;;5.06;100.00
39363;BME280;25088;43.238;23.110;2023-03-01T00:31:31;97266.75;;;5.01;100.00
39363;BME280;25088;43.238;23.110;2023-03-01T00:33:59;97268.84;;;4.99;100.00
39363;BME280;25088;43.238;23.110;2023-03-01T00:36:26;97264.25;;;4.93;100.00
39363;BME280;25088;43.238;23.110;2023-03-01T00:38:53;97271.53;;;4.92;100.00
39363;BME280;25088;43.238;23.110;2023-03-01T00:41:20;97251.28;;;4.82;100.00
39363;BME280;25088;43.238;23.110;2023-03-01T00:43:48;97251.09;;;4.90;100.00
39363;BME280;25088;43.238;23.110;2023-03-01T00:46:17;97261.56;;;5.00;100.00
39363;BME280;25088;43.238;23.110;2023-03-01T00:48:43;97246.94;;;4.87;100.00
39363;BME280;25088;43.238;23.110;2023-03-01T00:51:11;97258.84;;;4.93;100.00
39363;BME280;25088;43.238;23.110;2023-03-01T00:53:38;97262.38;;;4.93;100.00
39363;BME280;25088;43.238;23.110;2023-03-01T00:56:04;97261.31;;;4.95;100.00
39363;BME280;25088;43.238;23.110;2023-03-01T00:58:30;97242.97;;;4.83;100.00
39363;BME280;25088;43.238;23.110;2023-03-01T01:00:56;97252.59;;;4.92;100.00
39363;BME280;25088;43.238;23.110;2023-03-01T01:03:22;97251.94;;;4.97;100.00
39363;BME280;25088;43.238;23.110;2023-03-01T01:05:52;97244.25;;;4.94;100.00
39363;BME280;25088;43.238;23.110;2023-03-01T01:08:21;97252.38;;;4.94;100.00
39363;BME280;25088;43.238;23.110;2023-03-01T01:10:47;97249.22;;;4.84;100.00
39363;BME280;25088;43.238;23.110;2023-03-01T01:13:13;97241.91;;;4.78;100.00
39363;BME280;25088;43.238;23.110;2023-03-01T01:15:38;97246.66;;;4.76;100.00
39363;BME280;25088;43.238;23.110;2023-03-01T01:18:04;97252.09;;;4.76;100.00
39363;BME280;25088;43.238;23.110;2023-03-01T01:20:30;97245.25;;;4.80;100.00
39363;BME280;25088;43.238;23.110;2023-03-01T01:22:56;97246.91;;;4.81;100.00
39363;BME280;25088;43.238;23.110;2023-03-01T01:25:21;97250.66;;;4.80;100.00
39363;BME280;25088;43.238;23.110;2023-03-01T01:27:50;97248.78;;;4.80;100.00
39363;BME280;25088;43.238;23.110;2023-03-01T01:30:15;97253.34;;;4.80;100.00
39363;BME280;25088;43.238;23.110;2023-03-01T01:32:41;97247.72;;;4.81;100.00
39363;BME280;25088;43.238;23.110;2023-03-01T01:35:07;97242.94;;;4.77;100.00
39363;BME280;25088;43.238;23.110;2023-03-01T01:37:34;97237.09;;;4.73;100.00
39363;BME280;25088;43.238;23.110;2023-03-01T01:40:01;97240.22;;;4.77;100.00
39363;BME280;25088;43.238;23.110;2023-03-01T01:42:29;97251.09;;;4.83;100.00
39363;BME280;25088;43.238;23.110;2023-03-01T01:45:33;97247.13;;;4.86;100.00
39363;BME280;25088;43.238;23.110;2023-03-01T01:48:10;97251.91;;;4.84;100.00
39363;BME280;25088;43.238;23.110;2023-03-01T01:50:39;97251.69;;;4.79;100.00
39363;BME280;25088;43.238;23.110;2023-03-01T01:53:17;97228.56;;;4.70;100.00
39363;BME280;25088;43.238;23.110;2023-03-01T01:55:53;97238.31;;;4.71;100.00
39363;BME280;25088;43.238;23.110;2023-03-01T01:58:20;97252.13;;;4.82;100.00
39363;BME280;25088;43.238;23.110;2023-03-01T02:00:47;97250.50;;;4.88;100.00
39363;BME280;25088;43.238;23.110;2023-03-01T02:03:17;97232.97;;;4.84;100.00
39363;BME280;25088;43.238;23.110;2023-03-01T02:05:55;97237.38;;;4.91;100.00
39363;BME280;25088;43.238;23.110;2023-03-01T02:08:25;97240.88;;;4.85;100.00
39363;BME280;25088;43.238;23.110;2023-03-01T02:10:52;97244.44;;;4.86;100.00
39363;BME280;25088;43.238;23.110;2023-03-01T02:13:18;97224.19;;;4.75;100.00
39363;BME280;25088;43.238;23.110;2023-03-01T02:15:44;97234.66;;;4.85;100.00
39363;BME280;25088;43.238;23.110;2023-03-01T02:18:12;97234.03;;;4.89;100.00
39363;BME280;25088;43.238;23.110;2023-03-01T02:23:41;97225.47;;;4.73;100.00
39363;BME280;25088;43.238;23.110;2023-03-01T02:28:37;97228.63;;;4.83;100.00
39363;BME280;25088;43.238;23.110;2023-03-01T02:31:08;97236.13;;;4.87;100.00
39363;BME280;25088;43.238;23.110;2023-03-01T02:33:57;97229.47;;;4.90;100.00
39363;BME280;25088;43.238;23.110;2023-03-01T02:36:27;97229.44;;;4.83;100.00
39363;BME280;25088;43.238;23.110;2023-03-01T02:38:57;97222.78;;;4.86;100.00
39363;BME280;25088;43.238;23.110;2023-03-01T02:41:25;97227.78;;;4.82;100.00
39363;BME280;25088;43.238;23.110;2023-03-01T02:43:51;97227.78;;;4.82;100.00
39363;BME280;25088;43.238;23.110;2023-03-01T02:46:20;97225.50;;;4.86;100.00
39363;BME280;25088;43.238;23.110;2023-03-01T02:48:52;97205.44;;;4.67;100.00
39363;BME280;25088;43.238;23.110;2023-03-01T02:56:35;97229.44;;;4.83;100.00
39363;BME280;25088;43.238;23.110;2023-03-01T02:59:01;97231.50;;;4.81;100.00
39363;BME280;25088;43.238;23.110;2023-03-01T03:01:28;97226.91;;;4.82;100.00
39363;BME280;25088;43.238;23.110;2023-03-01T03:04:11;97234.03;;;4.89;100.00
39363;BME280;25088;43.238;23.110;2023-03-01T03:06:38;97232.16;;;4.90;100.00
39363;BME280;25088;43.238;23.110;2023-03-01T03:09:04;97229.44;;;4.83;100.00
39363;BME280;25088;43.238;23.110;2023-03-01T03:11:30;97218.63;;;4.83;100.00
39363;BME280;25088;43.238;23.110;2023-03-01T03:13:56;97228.63;;;4.83;100.00
39363;BME280;25088;43.238;23.110;2023-03-01T03:16:21;97230.91;;;4.86;100.00
39363;BME280;25088;43.238;23.110;2023-03-01T03:18:47;97225.94;;;4.89;100.00
39363;BME280;25088;43.238;23.110;2023-03-01T03:21:14;97230.94;;;4.92;100.00
39363;BME280;25088;43.238;23.110;2023-03-01T03:23:39;97225.72;;;4.91;100.00
39363;BME280;25088;43.238;23.110;2023-03-01T03:26:05;97230.50;;;4.89;100.00
39363;BME280;25088;43.238;23.110;2023-03-01T03:28:32;97227.16;;;4.87;100.00
39363;BME280;25088;43.238;23.110;2023-03-01T03:30:58;97204.81;;;4.72;100.00
39363;BME280;25088;43.238;23.110;2023-03-01T03:33:23;97217.34;;;4.79;100.00
39363;BME280;25088;43.238;23.110;2023-03-01T03:35:50;97226.75;;;4.90;100.00
39363;BME280;25088;43.238;23.110;2023-03-01T03:38:18;97228.84;;;4.88;100.00
39363;BME280;25088;43.238;23.110;2023-03-01T03:40:45;97236.31;;;4.86;100.00
39363;BME280;25088;43.238;23.110;2023-03-01T03:43:14;97231.50;;;4.81;100.00
39363;BME280;25088;43.238;23.110;2023-03-01T03:45:40;97226.91;;;4.82;100.00
39363;BME280;25088;43.238;23.110;2023-03-01T03:48:07;97228.38;;;4.78;100.00
39363;BME280;25088;43.238;23.110;2023-03-01T03:50:34;97234.66;;;4.85;100.00
39363;BME280;25088;43.238;23.110;2023-03-01T03:53:01;97225.50;;;4.86;100.00
39363;BME280;25088;43.238;23.110;2023-03-01T03:55:26;97226.75;;;4.90;100.00
39363;BME280;25088;43.238;23.110;2023-03-01T03:57:57;97233.22;;;4.89;100.00
39363;BME280;25088;43.238;23.110;2023-03-01T04:00:27;97228.19;;;4.86;100.00
39363;BME280;25088;43.238;23.110;2023-03-01T04:02:53;97233.00;;;4.90;100.00
39363;BME280;25088;43.238;23.110;2023-03-01T04:05:22;97226.31;;;4.86;100.00
39363;BME280;25088;43.238;23.110;2023-03-01T04:07:47;97222.78;;;4.79;100.00
39363;BME280;25088;43.238;23.110;2023-03-01T04:10:16;97218.59;;;4.77;100.00
39363;BME280;25088;43.238;23.110;2023-03-01T04:12:42;97218.19;;;4.80;100.00
39363;BME280;25088;43.238;23.110;2023-03-01T04:15:09;97216.09;;;4.82;100.00
39363;BME280;25088;43.238;23.110;2023-03-01T04:17:39;97206.53;;;4.79;100.00
39363;BME280;25088;43.238;23.110;2023-03-01T04:20:10;97208.88;;;4.89;100.00
39363;BME280;25088;43.238;23.110;2023-03-01T04:22:37;97201.38;;;4.91;100.00
39363;BME280;25088;43.238;23.110;2023-03-01T04:25:03;97207.81;;;4.90;100.00
39363;BME280;25088;43.238;23.110;2023-03-01T04:27:33;97201.56;;;4.83;100.00
39363;BME280;25088;43.238;23.110;2023-03-01T04:29:58;97197.59;;;4.79;100.00
39363;BME280;25088;43.238;23.110;2023-03-01T04:32:24;97195.94;;;4.78;100.00
39363;BME280;25088;43.238;23.110;2023-03-01T04:34:49;97194.28;;;4.90;100.00
39363;BME280;25088;43.238;23.110;2023-03-01T04:37:15;97195.72;;;4.86;100.00
39363;BME280;25088;43.238;23.110;2023-03-01T04:39:41;97200.28;;;4.79;100.00
39363;BME280;25088;43.238;23.110;2023-03-01T04:42:14;97190.09;;;4.81;100.00
39363;BME280;25088;43.238;23.110;2023-03-01T04:44:40;97199.66;;;4.77;100.00
39363;BME280;25088;43.238;23.110;2023-03-01T04:47:05;97193.81;;;4.73;100.00
39363;BME280;25088;43.238;23.110;2023-03-01T04:49:31;97206.56;;;4.86;100.00
39363;BME280;25088;43.238;23.110;2023-03-01T04:51:57;97185.28;;;4.70;100.00
39363;BME280;25088;43.238;23.110;2023-03-01T04:54:28;97203.44;;;4.82;100.00
39363;BME280;25088;43.238;23.110;2023-03-01T04:56:54;97201.97;;;4.80;100.00
39363;BME280;25088;43.238;23.110;2023-03-01T04:59:20;97203.44;;;4.82;100.00
39363;BME280;25088;43.238;23.110;2023-03-01T05:01:48;97195.28;;;4.76;100.00
39363;BME280;25088;43.238;23.110;2023-03-01T05:04:14;97175.28;;;4.63;100.00
39363;BME280;25088;43.238;23.110;2023-03-01T05:06:39;97189.66;;;4.77;100.00
39363;BME280;25088;43.238;23.110;2023-03-01T05:09:05;97186.94;;;4.77;100.00
39363;BME280;25088;43.238;23.110;2023-03-01T05:11:31;97195.50;;;4.81;100.00
39363;BME280;25088;43.238;23.110;2023-03-01T05:14:01;97194.44;;;4.75;100.00
39363;BME280;25088;43.238;23.110;2023-03-01T05:16:27;97192.34;;;4.71;100.00
39363;BME280;25088;43.238;23.110;2023-03-01T05:18:53;97192.13;;;4.72;100.00
39363;BME280;25088;43.238;23.110;2023-03-01T05:21:21;97166.94;;;4.58;100.00
39363;BME280;25088;43.238;23.110;2023-03-01T05:23:46;97177.38;;;4.68;100.00
39363;BME280;25088;43.238;23.110;2023-03-01T05:26:12;97187.00;;;4.84;100.00
39363;BME280;25088;43.238;23.110;2023-03-01T05:28:38;97188.25;;;4.88;100.00
39363;BME280;25088;43.238;23.110;2023-03-01T05:31:05;97187.00;;;4.90;100.00
39363;BME280;25088;43.238;23.110;2023-03-01T05:33:38;97185.78;;;4.93;100.00
39363;BME280;25088;43.238;23.110;2023-03-01T05:36:05;97189.09;;;4.95;100.00
39363;BME280;25088;43.238;23.110;2023-03-01T05:38:30;97185.97;;;4.91;100.00
39363;BME280;25088;43.238;23.110;2023-03-01T05:40:56;97188.66;;;4.91;100.00
39363;BME280;25088;43.238;23.110;2023-03-01T05:43:21;97187.84;;;4.91;100.00
39363;BME280;25088;43.238;23.110;2023-03-01T05:45:47;97190.53;;;4.91;100.00
39363;BME280;25088;43.238;23.110;2023-03-01T05:48:13;97195.53;;;4.87;100.00
39363;BME280;25088;43.238;23.110;2023-03-01T05:50:43;97195.56;;;4.94;100.00
39363;BME280;25088;43.238;23.110;2023-03-01T05:53:17;97194.13;;;4.98;100.00
39363;BME280;25088;43.238;23.110;2023-03-01T05:55:44;97172.66;;;4.97;100.00
39363;BME280;25088;43.238;23.110;2023-03-01T05:58:15;97181.44;;;5.12;100.00
39363;BME280;25088;43.238;23.110;2023-03-01T06:00:42;97193.13;;;5.12;100.00
39363;BME280;25088;43.238;23.110;2023-03-01T06:03:10;97202.91;;;5.13;100.00
39363;BME280;25088;43.238;23.110;2023-03-01T06:05:36;97201.84;;;5.14;100.00
39363;BME280;25088;43.238;23.110;2023-03-01T06:08:02;97202.69;;;5.15;100.00
39363;BME280;25088;43.238;23.110;2023-03-01T06:10:28;97206.22;;;5.15;100.00
39363;BME280;25088;43.238;23.110;2023-03-01T06:12:54;97214.16;;;5.30;100.00
39363;BME280;25088;43.238;23.110;2023-03-01T06:15:20;97208.53;;;5.25;100.00
39363;BME280;25088;43.238;23.110;2023-03-01T06:17:46;97210.41;;;5.25;100.00
39363;BME280;25088;43.238;23.110;2023-03-01T06:20:20;97220.00;;;5.27;100.00
39363;BME280;25088;43.238;23.110;2023-03-01T06:22:47;97213.53;;;5.28;100.00
39363;BME280;25088;43.238;23.110;2023-03-01T06:25:17;97211.06;;;5.33;100.00
39363;BME280;25088;43.238;23.110;2023-03-01T06:27:43;97213.34;;;5.36;100.00
39363;BME280;25088;43.238;23.110;2023-03-01T06:30:11;97198.75;;;5.17;100.00
39363;BME280;25088;43.238;23.110;2023-03-01T06:32:38;97198.53;;;5.26;100.00
39363;BME280;25088;43.238;23.110;2023-03-01T06:35:08;97221.06;;;5.46;100.00
39363;BME280;25088;43.238;23.110;2023-03-01T06:37:33;97220.88;;;5.67;100.00
39363;BME280;25088;43.238;23.110;2023-03-01T06:40:00;97220.88;;;5.74;100.00
39363;BME280;25088;43.238;23.110;2023-03-01T06:42:29;97210.03;;;5.61;100.00
39363;BME280;25088;43.238;23.110;2023-03-01T06:44:55;97216.28;;;5.61;100.00
39363;BME280;25088;43.238;23.110;2023-03-01T06:47:20;97220.03;;;5.60;100.00
39363;BME280;25088;43.238;23.110;2023-03-01T06:49:46;97221.50;;;5.63;100.00
39363;BME280;25088;43.238;23.110;2023-03-01T06:52:11;97216.09;;;5.69;100.00
39363;BME280;25088;43.238;23.110;2023-03-01T06:54:37;97218.38;;;5.73;100.00
39363;BME280;25088;43.238;23.110;2023-03-01T06:57:02;97222.31;;;5.90;100.00
39363;BME280;25088;43.238;23.110;2023-03-01T06:59:28;97207.97;;;5.83;100.00
39363;BME280;25088;43.238;23.110;2023-03-01T07:01:53;97213.00;;;5.92;100.00
39363;BME280;25088;43.238;23.110;2023-03-01T07:04:19;97207.56;;;5.92;100.00
39363;BME280;25088;43.238;23.110;2023-03-01T07:06:44;97209.00;;;5.95;100.00
39363;BME280;25088;43.238;23.110;2023-03-01T07:09:09;97210.06;;;6.01;100.00
39363;BME280;25088;43.238;23.110;2023-03-01T07:11:35;97209.00;;;6.08;100.00
39363;BME280;25088;43.238;23.110;2023-03-01T07:14:00;97204.22;;;6.04;100.00
39363;BME280;25088;43.238;23.110;2023-03-01T07:16:26;97199.00;;;5.95;100.00
39363;BME280;25088;43.238;23.110;2023-03-01T07:18:51;97205.47;;;6.01;100.00
39363;BME280;25088;43.238;23.110;2023-03-01T07:21:17;97202.97;;;6.00;100.00
39363;BME280;25088;43.238;23.110;2023-03-01T07:23:42;97192.75;;;5.95;100.00
39363;BME280;25088;43.238;23.110;2023-03-01T07:26:08;97206.72;;;6.05;100.00
39363;BME280;25088;43.238;23.110;2023-03-01T07:28:33;97201.72;;;6.09;100.00
39363;BME280;25088;43.238;23.110;2023-03-01T07:31:05;97200.69;;;6.03;100.00
39363;BME280;25088;43.238;23.110;2023-03-01T07:33:31;97197.53;;;6.00;100.00
39363;BME280;25088;43.238;23.110;2023-03-01T07:36:01;97195.25;;;5.96;100.00
39363;BME280;25088;43.238;23.110;2023-03-01T07:38:28;97194.19;;;5.91;100.00
39363;BME280;25088;43.238;23.110;2023-03-01T07:40:57;97193.38;;;5.77;100.00
39363;BME280;25088;43.238;23.110;2023-03-01T07:43:22;97201.72;;;5.82;100.00
39363;BME280;25088;43.238;23.110;2023-03-01T07:45:48;97112.34;;;5.29;100.00
39363;BME280;25088;43.238;23.110;2023-03-01T07:48:13;97207.34;;;5.87;100.00
39363;BME280;25088;43.238;23.110;2023-03-01T07:50:39;97208.97;;;5.82;100.00
39363;BME280;25088;43.238;23.110;2023-03-01T07:53:04;97209.63;;;5.84;100.00
39363;BME280;25088;43.238;23.110;2023-03-01T07:55:30;97203.78;;;5.80;100.00
39363;BME280;25088;43.238;23.110;2023-03-01T07:57:55;97197.53;;;5.80;100.00
39363;BME280;25088;43.238;23.110;2023-03-01T08:00:21;97199.84;;;5.83;100.00
39363;BME280;25088;43.238;23.110;2023-03-01T08:02:46;97177.94;;;5.64;100.00
39363;BME280;25088;43.238;23.110;2023-03-01T08:05:12;97194.19;;;5.71;100.00
39363;BME280;25088;43.238;23.110;2023-03-01T08:07:37;97200.25;;;5.73;100.00
39363;BME280;25088;43.238;23.110;2023-03-01T08:10:03;97196.06;;;5.70;100.00
39363;BME280;25088;43.238;23.110;2023-03-01T08:12:29;97198.59;;;5.72;100.00
39363;BME280;25088;43.238;23.110;2023-03-01T08:14:54;97201.28;;;5.65;100.00
39363;BME280;25088;43.238;23.110;2023-03-01T08:17:20;97166.69;;;5.41;100.00
39363;BME280;25088;43.238;23.110;2023-03-01T08:19:45;97181.88;;;5.42;100.00
39363;BME280;25088;43.238;23.110;2023-03-01T08:22:11;97205.88;;;5.65;100.00
39363;BME280;25088;43.238;23.110;2023-03-01T08:24:37;97214.22;;;5.63;100.00
39363;BME280;25088;43.238;23.110;2023-03-01T08:27:02;97192.94;;;5.60;100.00
39363;BME280;25088;43.238;23.110;2023-03-01T08:29:30;97182.94;;;5.54;100.00
39363;BME280;25088;43.238;23.110;2023-03-01T08:31:56;97194.00;;;5.59;100.00
39363;BME280;25088;43.238;23.110;2023-03-01T08:34:21;97201.28;;;5.59;100.00
39363;BME280;25088;43.238;23.110;2023-03-01T08:36:46;97201.69;;;5.56;100.00
39363;BME280;25088;43.238;23.110;2023-03-01T08:39:14;97198.78;;;5.64;100.00
39363;BME280;25088;43.238;23.110;2023-03-01T08:41:40;97181.91;;;5.49;100.00
39363;BME280;25088;43.238;23.110;2023-03-01T08:44:06;97198.38;;;5.54;100.00
39363;BME280;25088;43.238;23.110;2023-03-01T08:46:34;97209.41;;;5.59;100.00
39363;BME280;25088;43.238;23.110;2023-03-01T08:49:04;97210.06;;;5.67;100.00
39363;BME280;25088;43.238;23.110;2023-03-01T08:51:29;97209.19;;;5.60;100.00
39363;BME280;25088;43.238;23.110;2023-03-01T08:53:57;97211.69;;;5.62;100.00
39363;BME280;25088;43.238;23.110;2023-03-01T08:56:22;97213.56;;;5.61;100.00
39363;BME280;25088;43.238;23.110;2023-03-01T08:58:48;97205.03;;;5.58;100.00
39363;BME280;25088;43.238;23.110;2023-03-01T09:01:18;97207.13;;;5.62;100.00
39363;BME280;25088;43.238;23.110;2023-03-01T09:03:45;97202.34;;;5.58;100.00
39363;BME280;25088;43.238;23.110;2023-03-01T09:06:11;97170.03;;;5.43;100.00
39363;BME280;25088;43.238;23.110;2023-03-01T09:08:39;97209.63;;;5.57;100.00
39363;BME280;25088;43.238;23.110;2023-03-01T09:11:07;97205.03;;;5.58;100.00
39363;BME280;25088;43.238;23.110;2023-03-01T09:13:33;97204.59;;;5.61;100.00
39363;BME280;25088;43.238;23.110;2023-03-01T09:16:00;97201.91;;;5.54;100.00
39363;BME280;25088;43.238;23.110;2023-03-01T09:18:27;97195.00;;;5.52;100.00
39363;BME280;25088;43.238;23.110;2023-03-01T09:20:52;97199.00;;;5.49;100.00
39363;BME280;25088;43.238;23.110;2023-03-01T09:23:20;97180.88;;;5.43;100.00
39363;BME280;25088;43.238;23.110;2023-03-01T09:25:46;97202.31;;;5.51;100.00
39363;BME280;25088;43.238;23.110;2023-03-01T09:28:12;97205.03;;;5.58;100.00
39363;BME280;25088;43.238;23.110;2023-03-01T09:30:37;97193.38;;;5.64;100.00
39363;BME280;25088;43.238;23.110;2023-03-01T09:33:03;97200.88;;;5.68;100.00
39363;BME280;25088;43.238;23.110;2023-03-01T09:35:28;97197.31;;;5.61;100.00
39363;BME280;25088;43.238;23.110;2023-03-01T09:37:54;97202.72;;;5.61;100.00
39363;BME280;25088;43.238;23.110;2023-03-01T09:40:23;97207.13;;;5.69;100.00
39363;BME280;25088;43.238;23.110;2023-03-01T09:42:59;97206.69;;;5.65;100.00
39363;BME280;25088;43.238;23.110;2023-03-01T09:45:40;97201.50;;;5.70;100.00
39363;BME280;25088;43.238;23.110;2023-03-01T09:48:18;97188.16;;;5.62;100.00
39363;BME280;25088;43.238;23.110;2023-03-01T09:50:47;97198.16;;;5.68;100.00
39363;BME280;25088;43.238;23.110;2023-03-01T09:53:21;97198.59;;;5.72;100.00
39363;BME280;25088;43.238;23.110;2023-03-01T10:04:51;97199.19;;;5.74;100.00
39363;BME280;25088;43.238;23.110;2023-03-01T10:07:50;97199.41;;;5.79;100.00
39363;BME280;25088;43.238;23.110;2023-03-01T10:10:36;97201.06;;;5.80;100.00
39363;BME280;25088;43.238;23.110;2023-03-01T10:13:27;97198.78;;;5.84;100.00
39363;BME280;25088;43.238;23.110;2023-03-01T10:16:03;97176.25;;;5.90;100.00
39363;BME280;25088;43.238;23.110;2023-03-01T10:18:33;97187.34;;;5.95;100.00
39363;BME280;25088;43.238;23.110;2023-03-01T10:21:22;97180.63;;;5.91;100.00
39363;BME280;25088;43.238;23.110;2023-03-01T10:23:52;97185.69;;;5.94;99.84
39363;BME280;25088;43.238;23.110;2023-03-01T10:29:11;97171.50;;;5.99;98.25
39363;BME280;25088;43.238;23.110;2023-03-01T10:31:51;97175.44;;;5.89;99.23
39363;BME280;25088;43.238;23.110;2023-03-01T10:36:57;97167.13;;;5.98;100.00
39363;BME280;25088;43.238;23.110;2023-03-01T10:39:26;97162.72;;;6.03;100.00
39363;BME280;25088;43.238;23.110;2023-03-01T10:41:59;97157.09;;;6.05;100.00
39363;BME280;25088;43.238;23.110;2023-03-01T10:47:13;97159.81;;;6.05;100.00
39363;BME280;25088;43.238;23.110;2023-03-01T10:49:39;97139.97;;;5.91;100.00
39363;BME280;25088;43.238;23.110;2023-03-01T10:52:21;97156.47;;;6.03;100.00
39363;BME280;25088;43.238;23.110;2023-03-01T10:54:53;97161.91;;;5.96;100.00
39363;BME280;25088;43.238;23.110;2023-03-01T10:57:37;97153.75;;;5.89;100.00
39363;BME280;25088;43.238;23.110;2023-03-01T11:00:24;97150.03;;;5.77;100.00
39363;BME280;25088;43.238;23.110;2023-03-01T11:05:26;97148.78;;;5.73;100.00
39363;BME280;25088;43.238;23.110;2023-03-01T11:08:01;97145.00;;;5.81;100.00
39363;BME280;25088;43.238;23.110;2023-03-01T11:10:36;97137.94;;;5.80;100.00
39363;BME280;25088;43.238;23.110;2023-03-01T11:15:33;97136.69;;;5.69;100.00
39363;BME280;25088;43.238;23.110;2023-03-01T11:17:58;97141.69;;;5.72;100.00
39363;BME280;25088;43.238;23.110;2023-03-01T11:20:31;97130.22;;;5.70;100.00
39363;BME280;25088;43.238;23.110;2023-03-01T11:23:08;97108.16;;;5.60;100.00
39363;BME280;25088;43.238;23.110;2023-03-01T11:25:38;97125.44;;;5.72;100.00
39363;BME280;25088;43.238;23.110;2023-03-01T11:28:09;97121.66;;;5.80;100.00
39363;BME280;25088;43.238;23.110;2023-03-01T11:33:49;97104.38;;;5.61;100.00
39363;BME280;25088;43.238;23.110;2023-03-01T11:38:47;97114.59;;;5.79;100.00
39363;BME280;25088;43.238;23.110;2023-03-01T11:41:23;97116.25;;;5.93;100.00
39363;BME280;25088;43.238;23.110;2023-03-01T11:43:59;97100.00;;;5.93;100.00
39363;BME280;25088;43.238;23.110;2023-03-01T11:54:47;97091.84;;;6.00;100.00
39363;BME280;25088;43.238;23.110;2023-03-01T12:11:13;97072.47;;;5.96;100.00
39363;BME280;25088;43.238;23.110;2023-03-01T12:22:31;97069.97;;;5.94;100.00
39363;BME280;25088;43.238;23.110;2023-03-01T12:25:37;97072.47;;;5.96;100.00
39363;BME280;25088;43.238;23.110;2023-03-01T12:31:05;97062.44;;;5.90;100.00
39363;BME280;25088;43.238;23.110;2023-03-01T12:33:51;97077.50;;;5.92;100.00
39363;BME280;25088;43.238;23.110;2023-03-01T12:36:31;97067.91;;;5.83;100.00
39363;BME280;25088;43.238;23.110;2023-03-01T12:39:23;97067.47;;;5.80;100.00
39363;BME280;25088;43.238;23.110;2023-03-01T12:45:06;97056.03;;;5.78;100.00
39363;BME280;25088;43.238;23.110;2023-03-01T12:50:47;97049.94;;;5.95;100.00
39363;BME280;25088;43.238;23.110;2023-03-01T12:56:04;97058.94;;;5.83;100.00
39363;BME280;25088;43.238;23.110;2023-03-01T12:58:34;97049.78;;;5.77;100.00
39363;BME280;25088;43.238;23.110;2023-03-01T13:17:52;97064.13;;;5.98;100.00
39363;BME280;25088;43.238;23.110;2023-03-01T13:20:20;97055.38;;;5.89;100.00
39363;BME280;25088;43.238;23.110;2023-03-01T13:22:47;97055.59;;;5.81;100.00
39363;BME280;25088;43.238;23.110;2023-03-01T13:25:24;97052.88;;;5.87;100.00
39363;BME280;25088;43.238;23.110;2023-03-01T13:27:50;97043.06;;;5.86;100.00
39363;BME280;25088;43.238;23.110;2023-03-01T13:35:57;97042.47;;;5.84;100.00
39363;BME280;25088;43.238;23.110;2023-03-01T13:41:11;97027.25;;;5.77;100.00
39363;BME280;25088;43.238;23.110;2023-03-01T13:43:38;97046.41;;;5.88;100.00
39363;BME280;25088;43.238;23.110;2023-03-01T13:46:24;97038.72;;;5.92;100.00
39363;BME280;25088;43.238;23.110;2023-03-01T13:48:55;97038.47;;;6.00;100.00
39363;BME280;25088;43.238;23.110;2023-03-01T13:51:25;97044.13;;;5.99;100.00
39363;BME280;25088;43.238;23.110;2023-03-01T13:53:52;97021.19;;;5.88;100.00
39363;BME280;25088;43.238;23.110;2023-03-01T13:56:24;97034.97;;;5.93;100.00
39363;BME280;25088;43.238;23.110;2023-03-01T13:59:18;97032.03;;;5.94;100.00
39363;BME280;25088;43.238;23.110;2023-03-01T14:01:44;97027.66;;;5.80;100.00
39363;BME280;25088;43.238;23.110;2023-03-01T14:04:36;97033.50;;;5.97;100.00
39363;BME280;25088;43.238;23.110;2023-03-01T14:07:31;97026.16;;;5.91;100.00
39363;BME280;25088;43.238;23.110;2023-03-01T14:10:02;97018.50;;;5.88;100.00
39363;BME280;25088;43.238;23.110;2023-03-01T14:12:52;97025.78;;;5.94;100.00
39363;BME280;25088;43.238;23.110;2023-03-01T14:15:27;97027.03;;;5.85;100.00
39363;BME280;25088;43.238;23.110;2023-03-01T14:18:25;97018.91;;;5.85;100.00
39363;BME280;25088;43.238;23.110;2023-03-01T14:20:55;97009.59;;;5.67;100.00
39363;BME280;25088;43.238;23.110;2023-03-01T14:23:22;97019.13;;;5.77;100.00
39363;BME280;25088;43.238;23.110;2023-03-01T14:25:50;97020.16;;;5.89;100.00
39363;BME280;25088;43.238;23.110;2023-03-01T14:28:31;97012.00;;;5.89;100.00
39363;BME280;25088;43.238;23.110;2023-03-01T14:30:59;97000.75;;;5.85;100.00
39363;BME280;25088;43.238;23.110;2023-03-01T14:33:33;97006.22;;;5.92;100.00
39363;BME280;25088;43.238;23.110;2023-03-01T14:36:02;97001.78;;;5.91;100.00
39363;BME280;25088;43.238;23.110;2023-03-01T14:38:43;97010.34;;;5.88;100.00
39363;BME280;25088;43.238;23.110;2023-03-01T14:41:27;97008.91;;;5.92;100.00
39363;BME280;25088;43.238;23.110;2023-03-01T14:44:21;97011.84;;;5.70;100.00
39363;BME280;25088;43.238;23.110;2023-03-01T14:46:52;97006.03;;;5.74;100.00
39363;BME280;25088;43.238;23.110;2023-03-01T14:49:21;97011.66;;;5.65;100.00